createdAt,value
2022-08-26T00:01:36.675Z,15.45
2022-08-26T00:04:07.496Z,11.60
2022-08-26T00:06:38.201Z,10.43
2022-08-26T00:09:13.237Z,14.50
2022-08-26T00:11:47.198Z,16.33
2022-08-26T00:14:18.478Z,13.95
2022-08-26T00:16:49.058Z,14.20
2022-08-26T00:19:21.591Z,15.55
2022-08-26T00:21:52.631Z,20.33
2022-08-26T00:24:23.719Z,13.85
2022-08-26T00:26:54.058Z,15.13
2022-08-26T00:29:24.654Z,12.40
2022-08-26T00:31:54.857Z,12.88
2022-08-26T00:34:25.362Z,14.73
2022-08-26T00:36:57.993Z,12.43
2022-08-26T00:39:28.928Z,12.85
2022-08-26T00:41:59.267Z,16.98
2022-08-26T00:44:29.803Z,14.57
2022-08-26T00:47:04.464Z,18.00
2022-08-26T00:49:44.275Z,16.75
2022-08-26T00:52:19.029Z,17.15
2022-08-26T00:55:01.912Z,17.63
2022-08-26T00:57:34.519Z,17.80
2022-08-26T01:00:12.133Z,14.63
2022-08-26T01:02:46.799Z,11.10
2022-08-26T01:05:20.327Z,13.63
2022-08-26T01:07:50.479Z,14.23
2022-08-26T01:10:28.701Z,15.75
2022-08-26T01:13:04.637Z,15.27
2022-08-26T01:15:45.112Z,14.13
2022-08-26T01:18:16.347Z,14.05
2022-08-26T01:21:15.607Z,14.77
2022-08-26T01:23:50.273Z,12.32
2022-08-26T01:26:25.862Z,13.82
2022-08-26T01:29:00.199Z,13.65
2022-08-26T01:31:36.574Z,16.63
2022-08-26T01:34:27.543Z,14.02
2022-08-26T01:37:14.679Z,13.95
2022-08-26T01:39:51.306Z,12.25
2022-08-26T01:42:25.968Z,24.80
2022-08-26T01:45:07.426Z,10.98
2022-08-26T01:47:39.158Z,11.73
2022-08-26T01:50:27.880Z,17.58
2022-08-26T01:53:05.153Z,14.48
2022-08-26T01:55:35.970Z,13.98
2022-08-26T01:58:09.806Z,14.32
2022-08-26T02:00:44.078Z,14.48
2022-08-26T02:03:22.655Z,12.88
2022-08-26T02:05:55.764Z,13.27
2022-08-26T02:08:33.806Z,11.63
2022-08-26T02:11:03.919Z,10.90
2022-08-26T02:13:40.702Z,11.98
2022-08-26T02:16:14.287Z,15.70
2022-08-26T02:18:46.962Z,13.98
2022-08-26T02:21:20.159Z,13.07
2022-08-26T02:23:53.607Z,15.05
2022-08-26T02:26:29.636Z,13.32
2022-08-26T02:29:12.895Z,14.07
2022-08-26T02:31:44.925Z,13.88
2022-08-26T02:34:17.988Z,13.05
2022-08-26T02:36:48.182Z,15.15
2022-08-26T02:39:22.063Z,14.40
2022-08-26T02:41:52.548Z,16.27
2022-08-26T02:44:23.493Z,10.90
2022-08-26T02:46:55.816Z,13.52
2022-08-26T02:49:27.716Z,14.65
2022-08-26T02:51:58.903Z,14.07
2022-08-26T02:54:32.583Z,12.38
2022-08-26T02:57:04.755Z,12.13
2022-08-26T02:59:37.543Z,17.83
2022-08-26T03:02:08.355Z,13.43
2022-08-26T03:04:40.404Z,13.27
2022-08-26T03:07:27.811Z,14.77
2022-08-26T03:09:58.786Z,14.32
2022-08-26T03:12:29.059Z,10.75
2022-08-26T03:15:00.291Z,17.08
2022-08-26T03:17:31.202Z,16.98
2022-08-26T03:20:07.651Z,13.52
2022-08-26T03:22:39.876Z,12.73
2022-08-26T03:25:13.291Z,13.02
2022-08-26T03:27:44.946Z,11.70
2022-08-26T03:30:45.120Z,13.60
2022-08-26T03:33:16.504Z,14.20
2022-08-26T03:35:50.918Z,13.02
2022-08-26T03:38:22.679Z,14.70
2022-08-26T03:40:53.651Z,12.95
2022-08-26T03:43:27.812Z,12.70
2022-08-26T03:45:58.170Z,17.05
2022-08-26T03:48:28.430Z,14.02
2022-08-26T03:51:00.961Z,12.43
2022-08-26T03:53:33.311Z,7.93
2022-08-26T03:56:07.724Z,11.48
2022-08-26T03:58:38.548Z,13.45
2022-08-26T04:01:09.182Z,14.15
2022-08-26T04:03:59.985Z,13.68
2022-08-26T04:06:35.804Z,14.00
2022-08-26T04:09:13.211Z,13.80
2022-08-26T04:11:46.909Z,13.88
2022-08-26T04:14:24.869Z,16.92
2022-08-26T04:16:57.692Z,17.10
2022-08-26T04:19:29.153Z,17.23
2022-08-26T04:21:59.889Z,16.63
2022-08-26T04:24:31.655Z,14.55
2022-08-26T04:27:04.522Z,15.63
2022-08-26T04:29:34.969Z,16.42
2022-08-26T04:32:08.555Z,12.85
2022-08-26T04:34:40.082Z,14.10
2022-08-26T04:37:11.840Z,15.23
2022-08-26T04:39:43.770Z,15.43
2022-08-26T04:42:14.642Z,14.77
2022-08-26T04:44:45.048Z,17.58
2022-08-26T04:47:15.043Z,13.90
2022-08-26T04:49:45.514Z,12.88
2022-08-26T04:54:46.558Z,9.60
2022-08-26T04:59:46.170Z,17.38
2022-08-26T05:02:20.459Z,16.42
2022-08-26T05:04:51.816Z,16.38
2022-08-26T05:07:22.343Z,16.60
2022-08-26T05:09:53.163Z,18.38
2022-08-26T05:12:24.914Z,16.27
2022-08-26T05:17:24.771Z,16.48
2022-08-26T05:19:55.349Z,16.95
2022-08-26T05:22:25.486Z,17.33
2022-08-26T05:24:56.377Z,15.70
2022-08-26T05:27:27.023Z,16.00
2022-08-26T05:32:30.146Z,15.98
2022-08-26T05:35:00.713Z,16.55
2022-08-26T05:37:31.214Z,17.42
2022-08-26T05:40:03.777Z,15.25
2022-08-26T05:42:34.607Z,15.75
2022-08-26T05:45:05.988Z,17.15
2022-08-26T05:47:37.347Z,17.25
2022-08-26T05:50:08.229Z,19.23
2022-08-26T05:52:38.908Z,15.30
2022-08-26T05:55:09.275Z,16.42
2022-08-26T05:57:42.773Z,18.83
2022-08-26T06:00:16.608Z,18.60
2022-08-26T06:02:48.462Z,19.25
2022-08-26T06:05:18.736Z,17.95
2022-08-26T06:08:07.703Z,16.17
2022-08-26T06:13:49.212Z,18.70
2022-08-26T06:18:53.177Z,21.80
2022-08-26T06:21:29.962Z,20.95
2022-08-26T06:24:27.244Z,17.83
2022-08-26T06:27:02.483Z,20.15
2022-08-26T06:29:36.120Z,23.38
2022-08-26T06:32:08.780Z,19.45
2022-08-26T06:34:39.477Z,20.98
2022-08-26T06:37:10.027Z,19.50
2022-08-26T06:39:41.299Z,21.17
2022-08-26T06:42:12.058Z,18.92
2022-08-26T06:44:44.700Z,22.67
2022-08-26T06:47:15.003Z,12.98
2022-08-26T06:49:45.608Z,13.52
2022-08-26T06:54:51.683Z,11.93
2022-08-26T06:57:23.150Z,12.23
2022-08-26T06:59:53.699Z,14.25
2022-08-26T07:02:28.591Z,18.90
2022-08-26T07:04:59.276Z,16.00
2022-08-26T07:10:01.864Z,17.15
2022-08-26T07:12:33.315Z,21.13
2022-08-26T07:15:04.523Z,17.80
2022-08-26T07:17:35.597Z,19.17
2022-08-26T07:20:10.023Z,19.08
2022-08-26T07:22:40.574Z,17.75
2022-08-26T07:25:13.062Z,18.10
2022-08-26T07:32:44.975Z,16.30
2022-08-26T07:35:15.464Z,17.20
2022-08-26T07:37:46.282Z,16.05
2022-08-26T07:40:18.402Z,17.63
2022-08-26T07:42:48.853Z,20.70
2022-08-26T07:45:19.298Z,16.30
2022-08-26T07:47:49.942Z,16.20
2022-08-26T07:50:20.549Z,20.05
2022-08-26T07:52:51.410Z,16.77
2022-08-26T07:55:24.092Z,19.85
2022-08-26T07:57:54.610Z,18.02
2022-08-26T08:00:25.986Z,19.70
2022-08-26T08:02:56.855Z,18.38
2022-08-26T08:05:28.495Z,21.02
2022-08-26T08:08:27.899Z,17.30
2022-08-26T08:10:58.924Z,16.45
2022-08-26T08:13:30.521Z,14.90
2022-08-26T08:16:03.944Z,16.17
2022-08-26T08:18:34.694Z,18.10
2022-08-26T08:21:21.449Z,17.60
2022-08-26T08:23:56.475Z,19.95
2022-08-26T08:26:27.729Z,19.67
2022-08-26T08:28:59.571Z,22.40
2022-08-26T08:31:55.895Z,23.48
2022-08-26T08:34:24.117Z,17.40
2022-08-26T08:36:56.367Z,18.33
2022-08-26T08:39:27.625Z,14.77
2022-08-26T08:42:05.362Z,11.88
2022-08-26T08:44:42.218Z,13.23
2022-08-26T08:47:26.657Z,11.40
2022-08-26T08:50:01.415Z,14.95
2022-08-26T08:52:36.393Z,16.60
2022-08-26T08:55:11.011Z,19.42
2022-08-26T08:58:08.131Z,17.00
2022-08-26T09:00:50.645Z,22.63
2022-08-26T09:03:40.122Z,23.88
2022-08-26T09:06:18.158Z,16.63
2022-08-26T09:08:50.727Z,19.63
2022-08-26T09:11:22.063Z,22.05
2022-08-26T09:13:55.106Z,32.33
2022-08-26T09:16:35.584Z,19.83
2022-08-26T09:19:27.322Z,22.85
2022-08-26T09:22:05.798Z,25.42
2022-08-26T09:24:48.505Z,20.90
2022-08-26T09:27:45.015Z,22.50
2022-08-26T09:30:30.548Z,18.95
2022-08-26T09:33:16.885Z,19.45
2022-08-26T09:35:49.607Z,20.23
2022-08-26T09:38:29.113Z,17.27
2022-08-26T09:41:02.574Z,18.85
2022-08-26T09:43:35.699Z,17.95
2022-08-26T09:46:24.638Z,18.35
2022-08-26T09:48:55.268Z,18.80
2022-08-26T09:51:33.068Z,20.30
2022-08-26T09:54:05.703Z,18.65
2022-08-26T09:56:40.189Z,19.42
2022-08-26T09:59:13.186Z,17.85
2022-08-26T10:01:45.268Z,18.35
2022-08-26T10:04:23.497Z,19.77
2022-08-26T10:07:03.331Z,23.08
2022-08-26T10:09:44.217Z,19.25
2022-08-26T10:12:21.780Z,19.63
2022-08-26T10:14:59.336Z,21.33
2022-08-26T10:17:44.715Z,19.65
2022-08-26T10:20:27.580Z,20.33
2022-08-26T10:23:03.003Z,20.17
2022-08-26T10:25:40.353Z,16.35
2022-08-26T10:28:29.079Z,19.95
2022-08-26T10:31:29.186Z,21.55
2022-08-26T10:34:00.491Z,22.00
2022-08-26T10:37:13.662Z,22.42
2022-08-26T10:40:06.534Z,19.98
2022-08-26T10:42:51.687Z,23.33
2022-08-26T10:45:26.456Z,23.45
2022-08-26T10:48:12.263Z,26.48
2022-08-26T10:50:47.519Z,29.67
2022-08-26T10:53:51.421Z,24.20
2022-08-26T10:56:50.981Z,23.40
2022-08-26T10:59:36.928Z,25.90
2022-08-26T11:02:33.897Z,26.63
2022-08-26T11:05:11.841Z,23.40
2022-08-26T11:07:47.349Z,24.38
2022-08-26T11:10:25.798Z,26.70
2022-08-26T11:13:04.926Z,23.58
2022-08-26T11:15:37.923Z,24.10
2022-08-26T11:18:13.267Z,20.77
2022-08-26T11:20:47.360Z,23.25
2022-08-26T11:23:28.980Z,25.73
2022-08-26T11:26:11.992Z,25.42
2022-08-26T11:28:51.560Z,26.23
2022-08-26T11:31:29.642Z,21.83
2022-08-26T11:34:04.033Z,24.42
2022-08-26T11:36:43.230Z,24.90
2022-08-26T11:39:54.472Z,26.17
2022-08-26T11:42:35.452Z,23.23
2022-08-26T11:45:15.500Z,23.52
2022-08-26T11:47:46.458Z,24.15
2022-08-26T11:50:21.851Z,22.80
2022-08-26T11:53:02.828Z,26.75
2022-08-26T11:55:35.404Z,26.65
2022-08-26T11:58:08.652Z,25.33
2022-08-26T12:01:09.823Z,25.02
2022-08-26T12:03:49.976Z,24.50
2022-08-26T12:06:52.054Z,25.02
2022-08-26T12:09:30.322Z,22.75
2022-08-26T12:12:12.603Z,21.00
2022-08-26T12:14:44.118Z,22.48
2022-08-26T12:17:18.207Z,21.50
2022-08-26T12:19:50.011Z,22.02
2022-08-26T12:22:27.058Z,22.05
2022-08-26T12:25:22.565Z,22.83
2022-08-26T12:27:54.066Z,24.65
2022-08-26T12:30:26.471Z,23.20
2022-08-26T12:33:22.349Z,23.15
2022-08-26T12:35:56.762Z,22.83
2022-08-26T12:38:28.666Z,24.30
2022-08-26T12:40:59.543Z,21.63
2022-08-26T12:43:59.284Z,20.13
2022-08-26T12:46:33.226Z,20.65
2022-08-26T12:49:04.469Z,20.60
2022-08-26T12:51:36.477Z,23.85
2022-08-26T12:54:07.927Z,20.23
2022-08-26T12:56:42.315Z,19.83
2022-08-26T12:59:28.284Z,21.33
2022-08-26T13:01:59.035Z,20.42
2022-08-26T13:04:42.358Z,22.50
2022-08-26T13:07:23.375Z,21.38
2022-08-26T13:09:56.304Z,18.83
2022-08-26T13:12:31.976Z,19.15
2022-08-26T13:15:03.770Z,21.05
2022-08-26T13:17:36.984Z,21.35
2022-08-26T13:20:07.839Z,20.25
2022-08-26T13:22:42.208Z,19.88
2022-08-26T13:25:13.008Z,19.73
2022-08-26T13:27:44.015Z,20.25
2022-08-26T13:30:14.750Z,19.33
2022-08-26T13:32:45.477Z,19.67
2022-08-26T13:35:15.714Z,17.00
2022-08-26T13:37:46.421Z,19.52
2022-08-26T13:40:16.701Z,19.77
2022-08-26T13:42:49.614Z,21.98
2022-08-26T13:45:20.274Z,20.92
2022-08-26T13:47:50.837Z,17.67
2022-08-26T13:50:21.071Z,21.98
2022-08-26T13:52:51.864Z,21.52
2022-08-26T13:55:22.067Z,19.30
2022-08-26T13:57:53.400Z,18.80
2022-08-26T14:00:24.269Z,16.90
2022-08-26T14:02:55.307Z,18.88
2022-08-26T14:05:25.634Z,17.83
2022-08-26T14:07:58.481Z,24.17
2022-08-26T14:10:29.539Z,20.73
2022-08-26T14:13:00.173Z,18.40
2022-08-26T14:15:31.174Z,20.73
2022-08-26T14:18:05.915Z,21.17
2022-08-26T14:20:39.936Z,21.75
2022-08-26T14:23:14.145Z,20.40
2022-08-26T14:25:44.755Z,17.88
2022-08-26T14:28:16.144Z,17.50
2022-08-26T14:30:52.554Z,19.00
2022-08-26T14:33:28.737Z,16.80
2022-08-26T14:36:18.692Z,16.17
2022-08-26T14:38:49.615Z,17.13
2022-08-26T14:41:21.542Z,13.43
2022-08-26T14:44:01.974Z,16.60
2022-08-26T14:46:35.693Z,15.93
2022-08-26T14:49:10.342Z,16.40
2022-08-26T14:51:42.120Z,15.77
2022-08-26T14:54:17.843Z,15.18
2022-08-26T14:56:53.603Z,16.25
2022-08-26T14:59:49.977Z,18.17
2022-08-26T15:02:27.761Z,15.75
2022-08-26T15:05:05.562Z,17.02
2022-08-26T15:07:36.087Z,13.95
2022-08-26T15:10:09.107Z,17.58
2022-08-26T15:12:40.186Z,15.55
2022-08-26T15:15:12.580Z,17.38
2022-08-26T15:17:43.129Z,17.88
2022-08-26T15:20:19.054Z,16.90
2022-08-26T15:22:49.747Z,16.17
2022-08-26T15:25:21.913Z,15.95
2022-08-26T15:27:52.235Z,15.95
2022-08-26T15:30:23.137Z,14.95
2022-08-26T15:32:53.441Z,13.05
2022-08-26T15:35:24.206Z,14.13
2022-08-26T15:37:54.492Z,17.15
2022-08-26T15:40:27.841Z,13.80
2022-08-26T15:43:17.748Z,16.00
2022-08-26T15:45:48.790Z,15.07
2022-08-26T15:48:19.006Z,15.88
2022-08-26T15:50:58.797Z,15.65
2022-08-26T15:53:32.394Z,15.23
2022-08-26T15:56:03.854Z,18.83
2022-08-26T15:58:34.170Z,16.17
2022-08-26T16:01:07.611Z,20.27
2022-08-26T16:03:38.042Z,18.48
2022-08-26T16:06:09.287Z,19.52
2022-08-26T16:08:40.001Z,16.92
2022-08-26T16:11:10.840Z,19.83
2022-08-26T16:13:41.134Z,20.50
2022-08-26T16:16:12.114Z,17.27
2022-08-26T16:18:43.414Z,15.75
2022-08-26T16:21:18.901Z,16.02
2022-08-26T16:23:49.518Z,15.48
2022-08-26T16:26:34.057Z,14.35
2022-08-26T16:29:08.758Z,14.73
2022-08-26T16:31:39.929Z,14.98
2022-08-26T16:34:11.028Z,16.30
2022-08-26T16:36:42.019Z,14.07
2022-08-26T16:39:12.245Z,11.50
2022-08-26T16:41:43.304Z,10.05
2022-08-26T16:44:13.553Z,11.23
2022-08-26T16:46:46.710Z,15.13
2022-08-26T16:49:17.276Z,11.52
2022-08-26T16:51:48.057Z,10.02
2022-08-26T16:54:18.274Z,10.25
2022-08-26T16:56:48.925Z,13.93
2022-08-26T16:59:19.207Z,10.65
2022-08-26T17:01:49.914Z,15.48
2022-08-26T17:04:20.927Z,13.13
2022-08-26T17:06:51.947Z,10.80
2022-08-26T17:09:22.952Z,9.05
2022-08-26T17:11:54.307Z,8.23
2022-08-26T17:14:24.562Z,9.95
2022-08-26T17:16:55.508Z,9.07
2022-08-26T17:19:26.426Z,9.35
2022-08-26T17:21:57.099Z,8.93
2022-08-26T17:24:29.387Z,9.10
2022-08-26T17:27:00.096Z,12.27
2022-08-26T17:29:30.450Z,9.77
2022-08-26T17:32:01.323Z,11.82
2022-08-26T17:34:31.991Z,8.55
2022-08-26T17:37:02.282Z,10.20
2022-08-26T17:39:32.675Z,9.13
2022-08-26T17:42:02.538Z,8.77
2022-08-26T17:44:33.296Z,9.55
2022-08-26T17:47:03.335Z,11.40
2022-08-26T17:49:33.822Z,10.48
2022-08-26T17:52:09.611Z,8.73
2022-08-26T17:54:41.938Z,10.65
2022-08-26T17:57:12.087Z,12.43
2022-08-26T17:59:43.379Z,12.52
2022-08-26T18:02:13.555Z,14.75
2022-08-26T18:04:44.058Z,12.90
2022-08-26T18:07:17.361Z,10.50
2022-08-26T18:09:47.884Z,10.73
2022-08-26T18:12:18.059Z,14.52
2022-08-26T18:14:48.538Z,10.73
2022-08-26T18:17:20.305Z,9.68
2022-08-26T18:19:51.146Z,14.63
2022-08-26T18:22:22.550Z,12.95
2022-08-26T18:24:59.084Z,16.10
2022-08-26T18:27:29.634Z,16.30
2022-08-26T18:30:00.418Z,15.07
2022-08-26T18:32:30.642Z,13.68
2022-08-26T18:35:01.161Z,13.00
2022-08-26T18:37:32.081Z,14.25
2022-08-26T18:40:02.713Z,10.15
2022-08-26T18:42:34.430Z,13.73
2022-08-26T18:45:06.819Z,14.27
2022-08-26T18:47:37.728Z,12.90
2022-08-26T18:50:09.679Z,14.88
2022-08-26T18:52:39.927Z,18.73
2022-08-26T18:55:10.967Z,13.93
2022-08-26T18:57:41.133Z,12.10
2022-08-26T19:00:12.531Z,11.93
2022-08-26T19:02:42.693Z,16.70
2022-08-26T19:05:22.403Z,14.77
2022-08-26T19:07:52.500Z,13.60
2022-08-26T19:10:22.996Z,16.80
2022-08-26T19:12:55.379Z,17.42
2022-08-26T19:15:29.401Z,15.25
2022-08-26T19:17:59.994Z,15.32
2022-08-26T19:20:30.502Z,14.45
2022-08-26T19:23:05.663Z,15.93
2022-08-26T19:25:46.906Z,13.43
2022-08-26T19:28:19.499Z,12.98
2022-08-26T19:30:53.259Z,19.45
2022-08-26T19:33:23.911Z,11.40
2022-08-26T19:35:54.578Z,15.63
2022-08-26T19:38:25.257Z,15.50
2022-08-26T19:40:59.593Z,11.45
2022-08-26T19:43:29.692Z,12.23
2022-08-26T19:46:03.002Z,17.00
2022-08-26T19:48:33.046Z,13.25
2022-08-26T19:51:03.585Z,9.52
2022-08-26T19:53:33.675Z,12.52
2022-08-26T19:56:04.347Z,11.10
2022-08-26T19:58:34.538Z,12.23
2022-08-26T20:01:05.754Z,18.10
2022-08-26T20:03:37.227Z,13.85
2022-08-26T20:06:09.659Z,10.98
2022-08-26T20:08:41.908Z,11.60
2022-08-26T20:11:15.811Z,14.02
2022-08-26T20:13:49.606Z,13.02
2022-08-26T20:16:20.189Z,11.73
2022-08-26T20:19:08.801Z,12.43
2022-08-26T20:21:41.027Z,9.00
2022-08-26T20:24:16.798Z,9.57
2022-08-26T20:26:47.355Z,22.20
2022-08-26T20:29:19.431Z,16.80
2022-08-26T20:31:50.541Z,13.57
2022-08-26T20:34:51.778Z,12.73
2022-08-26T20:37:23.026Z,13.20
2022-08-26T20:39:53.124Z,15.60
2022-08-26T20:42:23.595Z,15.20
2022-08-26T20:44:56.357Z,16.77
2022-08-26T20:47:26.870Z,18.60
2022-08-26T20:49:59.390Z,15.25
2022-08-26T20:52:29.895Z,18.00
2022-08-26T20:54:59.958Z,16.42
2022-08-26T20:57:30.512Z,16.95
2022-08-26T21:00:00.579Z,16.10
2022-08-26T21:02:31.009Z,14.43
2022-08-26T21:05:01.996Z,17.10
2022-08-26T21:07:32.594Z,20.20
2022-08-26T21:10:02.623Z,16.30
2022-08-26T21:12:33.703Z,17.08
2022-08-26T21:15:04.514Z,15.35
2022-08-26T21:17:35.862Z,17.73
2022-08-26T21:20:07.003Z,17.45
2022-08-26T21:22:37.420Z,18.45
2022-08-26T21:25:08.043Z,15.32
2022-08-26T21:27:39.192Z,17.42
2022-08-26T21:30:09.852Z,16.08
2022-08-26T21:32:40.214Z,12.25
2022-08-26T21:35:11.090Z,13.68
2022-08-26T21:37:42.075Z,11.00
2022-08-26T21:40:12.774Z,13.50
2022-08-26T21:42:43.229Z,17.27
2022-08-26T21:45:13.887Z,12.52
2022-08-26T21:47:44.660Z,9.38
2022-08-26T21:50:14.891Z,11.18
2022-08-26T21:52:45.347Z,12.60
2022-08-26T21:55:15.379Z,12.73
2022-08-26T21:57:45.959Z,15.82
2022-08-26T22:00:17.483Z,8.43
2022-08-26T22:02:51.346Z,10.23
2022-08-26T22:05:21.351Z,7.82
2022-08-26T22:07:52.814Z,12.27
2022-08-26T22:10:23.340Z,10.57
2022-08-26T22:12:53.806Z,12.30
2022-08-26T22:15:26.913Z,8.85
2022-08-26T22:17:59.843Z,9.10
2022-08-26T22:20:32.401Z,10.98
2022-08-26T22:23:02.936Z,10.90
2022-08-26T22:25:33.531Z,7.35
2022-08-26T22:28:04.441Z,11.07
2022-08-26T22:30:38.666Z,10.13
2022-08-26T22:33:10.591Z,6.15
2022-08-26T22:35:46.005Z,14.90
2022-08-26T22:38:16.728Z,19.00
2022-08-26T22:40:56.421Z,18.30
2022-08-26T22:43:28.740Z,13.98
2022-08-26T22:45:59.005Z,12.02
2022-08-26T22:48:29.595Z,8.38
2022-08-26T22:51:00.335Z,13.25
2022-08-26T22:53:31.026Z,20.80
2022-08-26T22:56:06.838Z,9.23
2022-08-26T22:58:37.682Z,8.77
2022-08-26T23:01:08.938Z,10.30
2022-08-26T23:03:39.980Z,9.98
2022-08-26T23:06:11.689Z,9.88
2022-08-26T23:08:43.164Z,10.20
2022-08-26T23:11:14.692Z,8.30
2022-08-26T23:13:45.386Z,9.82
2022-08-26T23:16:15.518Z,11.13
2022-08-26T23:18:46.361Z,8.27
2022-08-26T23:21:16.487Z,9.35
2022-08-26T23:23:47.119Z,8.98
2022-08-26T23:26:17.890Z,12.70
2022-08-26T23:28:48.570Z,7.80
2022-08-26T23:31:18.593Z,10.90
2022-08-26T23:34:07.490Z,14.52
2022-08-26T23:36:38.160Z,9.32
2022-08-26T23:39:08.689Z,13.10
2022-08-26T23:41:39.565Z,9.18
2022-08-26T23:44:10.077Z,10.20
2022-08-26T23:46:40.627Z,13.95
2022-08-26T23:49:11.228Z,12.35
2022-08-26T23:51:59.516Z,11.88
2022-08-26T23:54:30.022Z,9.35
2022-08-26T23:57:00.431Z,11.25
2022-08-26T23:59:31.049Z,10.65
